Airfield :
LOGIN :

Register | Disclaimer

   EN    FR    IT 

 










Legend :    VFR   Marginal VFR   IFR   Intensive IFR   Very Intensive IFR
Visi :
Ceiling :
>= 8 km
>= 3000ft
5 to 8 km
1000 to 3000 ft
1500m to 5 km
500 to 1000 ft
800 to 1500m
200 to 500 ft
< 800m
< 200 ft
Symbols :   Thunderstorms  Fog  Heavy snow  Heavy precipitations  Wind > 20 kt
SIGMETs :     Misc.  Thunderstorms  Icing  Turbulence  Mountain Waves  Volcanic Ashes






- Airport Elevation : 215 ft
- IATA code : ABZ


EGPD - Aberdeen / Dyce

CURRENT METAR :
  • 090350Z AUTO VRB01KT 9999 OVC044 05/02 Q1027

EXPIRED METARs :
  • 090320Z AUTO VRB01KT 9999 BKN043 05/03 Q1027 NOSIG
  • 090250Z AUTO VRB01KT 9999 OVC043 05/03 Q1027 NOSIG
  • 090220Z AUTO 35002KT 9999 BKN043 05/03 Q1027 NOSIG
  • 090150Z AUTO VRB03KT 9999 BKN043 05/03 Q1027 NOSIG
  • 090120Z AUTO 32005KT 9999 BKN043 05/02 Q1027 NOSIG
  • 090050Z AUTO 31005KT 9999 BKN045 05/03 Q1027 NOSIG

TAF TAF EGPD
Valid from the 09 at 00:00 until the 10 at 00:00 UTC


082304Z 0900/0924 32006KT 9999 FEW010 SCT020
BECMG 0906/0909 15010KT



MET'MAP, your aeronautical weather chart ! - Copyright ORBIFLY December 2007 - Disclaimer

ORBIFLY MET'MAP TEAM :

Programming & Development : Alexandra Zaïnal
Concept & original design : Baudouin d'Aumeries
Assistance for programming : Marc-Olivier Méhu
Technical & hardware support : Manuel Goepfert

Contact : metmap@orbifly.com




SOURCES & CREDITS :

   NOAA